Time,TemperatureF,DewpointF,PressureIn,WindDirection,WindDirectionDegrees,WindSpeedMPH,WindSpeedGustMPH,Humidity,HourlyPrecipIn,Conditions,Clouds,dailyrainin,SolarRadiationWatts/m^2,SoftwareType,DateUTC
2013-09-26 00:02:00,37.0,34.0,-100.00,NNW,344,5.0,14.0,89,0.03,,,0.13,0.000000,,2013-09-26 06:02:00,
2013-09-26 00:12:00,37.0,34.0,-100.00,NNW,344,5.0,14.0,89,0.03,,,0.13,0.000000,,2013-09-26 06:12:00,
2013-09-26 00:42:00,35.0,32.0,-100.00,NNW,340,7.0,16.0,90,0.07,,,0.20,0.000000,,2013-09-26 06:42:00,
2013-09-26 00:53:00,35.0,32.0,-100.00,NNW,340,7.0,16.0,90,0.07,,,0.20,0.000000,,2013-09-26 06:53:00,
2013-09-26 01:01:00,35.0,32.0,-100.00,NNW,340,7.0,16.0,90,0.07,,,0.20,0.000000,,2013-09-26 07:01:00,
2013-09-26 01:11:00,35.0,32.0,-100.00,NNW,340,7.0,16.0,90,0.07,,,0.20,0.000000,,2013-09-26 07:11:00,
2013-09-26 01:42:00,34.0,32.0,-100.00,NNW,336,5.0,14.0,94,0.05,,,0.25,0.000000,,2013-09-26 07:42:00,
2013-09-26 01:53:00,34.0,32.0,-100.00,NNW,336,5.0,14.0,94,0.05,,,0.25,0.000000,,2013-09-26 07:53:00,
2013-09-26 02:02:00,34.0,32.0,-100.00,NNW,336,5.0,14.0,94,0.05,,,0.25,0.000000,,2013-09-26 08:02:00,
2013-09-26 02:11:00,34.0,32.0,-100.00,NNW,336,5.0,14.0,94,0.05,,,0.25,0.000000,,2013-09-26 08:11:00,
2013-09-26 02:42:00,33.0,32.0,-100.00,NW,311,2.0,7.0,97,0.03,,,0.28,0.000000,,2013-09-26 08:42:00,
2013-09-26 02:52:00,33.0,32.0,-100.00,NW,311,2.0,7.0,97,0.03,,,0.28,0.000000,,2013-09-26 08:52:00,
2013-09-26 03:02:00,33.0,32.0,-100.00,NW,311,2.0,7.0,97,0.03,,,0.28,0.000000,,2013-09-26 09:02:00,
2013-09-26 03:11:00,33.0,32.0,-100.00,NW,311,2.0,7.0,97,0.03,,,0.28,0.000000,,2013-09-26 09:11:00,
2013-09-26 03:43:00,34.0,33.0,-100.00,WNW,302,7.0,12.0,97,0.03,,,0.31,0.000000,,2013-09-26 09:43:00,
2013-09-26 03:54:00,34.0,33.0,-100.00,WNW,302,7.0,12.0,97,0.03,,,0.31,0.000000,,2013-09-26 09:54:00,
2013-09-26 04:03:00,34.0,33.0,-100.00,WNW,302,7.0,12.0,97,0.03,,,0.31,0.000000,,2013-09-26 10:03:00,
2013-09-26 04:12:00,34.0,33.0,-100.00,WNW,302,7.0,12.0,97,0.03,,,0.31,0.000000,,2013-09-26 10:12:00,
2013-09-26 04:42:00,34.0,33.0,-100.00,WNW,298,5.0,11.0,97,0.02,,,0.33,0.000000,,2013-09-26 10:42:00,
2013-09-26 04:53:00,34.0,33.0,-100.00,WNW,298,5.0,11.0,97,0.02,,,0.33,0.000000,,2013-09-26 10:53:00,
2013-09-26 05:02:00,34.0,33.0,-100.00,WNW,298,5.0,11.0,97,0.02,,,0.33,0.000000,,2013-09-26 11:02:00,
2013-09-26 05:12:00,34.0,33.0,-100.00,WNW,298,5.0,11.0,97,0.02,,,0.33,0.000000,,2013-09-26 11:12:00,
2013-09-26 05:42:00,35.0,34.0,-100.00,NW,326,5.0,10.0,96,0.01,,,0.33,0.000000,,2013-09-26 11:42:00,
2013-09-26 05:52:00,35.0,34.0,-100.00,NW,326,5.0,10.0,96,0.01,,,0.33,0.000000,,2013-09-26 11:52:00,
2013-09-26 06:01:00,35.0,34.0,-100.00,NW,326,5.0,10.0,96,0.01,,,0.33,0.000000,,2013-09-26 12:01:00,
2013-09-26 06:11:00,35.0,34.0,-100.00,NW,326,5.0,10.0,96,0.01,,,0.33,0.000000,,2013-09-26 12:11:00,
2013-09-26 06:42:00,34.0,33.0,-100.00,NNW,332,5.0,10.0,96,0.00,,,0.33,0.000000,,2013-09-26 12:42:00,
2013-09-26 06:52:00,34.0,33.0,-100.00,NNW,332,5.0,10.0,96,0.00,,,0.33,0.000000,,2013-09-26 12:52:00,
2013-09-26 07:02:00,34.0,33.0,-100.00,NNW,332,5.0,10.0,96,0.00,,,0.33,0.000000,,2013-09-26 13:02:00,
2013-09-26 07:11:00,34.0,33.0,-100.00,NNW,332,5.0,10.0,96,0.00,,,0.33,0.000000,,2013-09-26 13:11:00,
2013-09-26 07:42:00,34.0,32.0,-100.00,WNW,292,5.0,16.0,94,0.01,,,0.34,0.000000,,2013-09-26 13:42:00,
2013-09-26 07:52:00,34.0,32.0,-100.00,WNW,292,5.0,16.0,94,0.01,,,0.34,0.000000,,2013-09-26 13:52:00,
2013-09-26 08:02:00,34.0,32.0,-100.00,WNW,292,5.0,16.0,94,0.01,,,0.34,0.000000,,2013-09-26 14:02:00,
2013-09-26 08:11:00,34.0,32.0,-100.00,WNW,292,5.0,16.0,94,0.01,,,0.34,0.000000,,2013-09-26 14:11:00,
2013-09-26 08:42:00,34.0,32.0,-100.00,WNW,300,7.0,15.0,91,0.00,,,0.34,3.000000,,2013-09-26 14:42:00,
2013-09-26 08:52:00,34.0,32.0,-100.00,WNW,300,7.0,15.0,91,0.00,,,0.34,3.000000,,2013-09-26 14:52:00,
2013-09-26 09:02:00,34.0,32.0,-100.00,WNW,300,7.0,15.0,91,0.00,,,0.34,3.000000,,2013-09-26 15:02:00,
2013-09-26 09:11:00,34.0,32.0,-100.00,WNW,300,7.0,15.0,91,0.00,,,0.34,3.000000,,2013-09-26 15:11:00,
2013-09-26 09:44:00,35.0,32.0,-100.00,NNW,342,6.0,13.0,90,0.00,,,0.33,47.000000,,2013-09-26 15:44:00,
2013-09-26 09:54:00,35.0,32.0,-100.00,NNW,342,6.0,13.0,90,0.00,,,0.33,47.000000,,2013-09-26 15:54:00,
2013-09-26 10:04:00,35.0,32.0,-100.00,NNW,342,6.0,13.0,90,0.00,,,0.33,47.000000,,2013-09-26 16:04:00,
2013-09-26 10:12:00,35.0,32.0,-100.00,NNW,342,6.0,13.0,90,0.00,,,0.33,47.000000,,2013-09-26 16:12:00,
2013-09-26 10:43:00,35.0,33.0,-100.00,NNW,331,5.0,10.0,93,0.01,,,0.34,121.000000,,2013-09-26 16:43:00,
2013-09-26 10:53:00,35.0,33.0,-100.00,NNW,331,5.0,10.0,93,0.01,,,0.34,121.000000,,2013-09-26 16:53:00,
2013-09-26 11:03:00,35.0,33.0,-100.00,NNW,331,5.0,10.0,93,0.01,,,0.34,121.000000,,2013-09-26 17:03:00,
2013-09-26 11:12:00,35.0,33.0,-100.00,NNW,331,5.0,10.0,93,0.01,,,0.34,121.000000,,2013-09-26 17:12:00,
2013-09-26 11:43:00,36.0,34.0,-100.00,NNW,334,7.0,15.0,91,0.00,,,0.34,239.000000,,2013-09-26 17:43:00,
2013-09-26 11:52:00,36.0,34.0,-100.00,NNW,334,7.0,15.0,91,0.00,,,0.34,239.000000,,2013-09-26 17:52:00,
2013-09-26 12:01:00,36.0,34.0,-100.00,NNW,334,7.0,15.0,91,0.00,,,0.34,239.000000,,2013-09-26 18:01:00,
2013-09-26 12:13:00,36.0,34.0,-100.00,NNW,334,7.0,15.0,91,0.00,,,0.34,239.000000,,2013-09-26 18:13:00,
2013-09-26 12:42:00,37.0,34.0,-100.00,NNW,340,8.0,13.0,88,0.00,,,0.33,246.000000,,2013-09-26 18:42:00,
2013-09-26 12:52:00,37.0,34.0,-100.00,NNW,340,8.0,13.0,88,0.00,,,0.33,246.000000,,2013-09-26 18:52:00,
2013-09-26 13:03:00,37.0,34.0,-100.00,NNW,340,8.0,13.0,88,0.00,,,0.33,246.000000,,2013-09-26 19:03:00,
2013-09-26 13:12:00,37.0,34.0,-100.00,NNW,340,8.0,13.0,88,0.00,,,0.33,246.000000,,2013-09-26 19:12:00,
2013-09-26 13:44:00,40.0,33.0,-100.00,NNW,342,7.0,13.0,75,0.00,,,0.32,326.000000,,2013-09-26 19:44:00,
2013-09-26 13:52:00,40.0,33.0,-100.00,NNW,342,7.0,13.0,75,0.00,,,0.32,326.000000,,2013-09-26 19:52:00,
2013-09-26 14:02:00,40.0,33.0,-100.00,NNW,342,7.0,13.0,75,0.00,,,0.32,326.000000,,2013-09-26 20:02:00,
2013-09-26 14:12:00,40.0,33.0,-100.00,NNW,342,7.0,13.0,75,0.00,,,0.32,326.000000,,2013-09-26 20:12:00,
2013-09-26 14:43:00,44.0,31.0,-100.00,North,3,7.0,11.0,60,0.00,,,0.31,652.000000,,2013-09-26 20:43:00,
2013-09-26 14:52:00,44.0,31.0,-100.00,North,3,7.0,11.0,60,0.00,,,0.31,652.000000,,2013-09-26 20:52:00,
2013-09-26 15:02:00,44.0,31.0,-100.00,North,3,7.0,11.0,60,0.00,,,0.31,652.000000,,2013-09-26 21:02:00,
2013-09-26 15:11:00,44.0,31.0,-100.00,North,3,7.0,11.0,60,0.00,,,0.31,652.000000,,2013-09-26 21:11:00,
2013-09-26 15:44:00,40.0,34.0,-100.00,NNW,341,10.0,17.0,78,0.00,,,0.31,378.000000,,2013-09-26 21:44:00,
2013-09-26 15:54:00,40.0,34.0,-100.00,NNW,341,10.0,17.0,78,0.00,,,0.31,378.000000,,2013-09-26 21:54:00,
2013-09-26 16:04:00,40.0,34.0,-100.00,NNW,341,10.0,17.0,78,0.00,,,0.31,378.000000,,2013-09-26 22:04:00,
2013-09-26 16:14:00,40.0,34.0,-100.00,NNW,341,10.0,17.0,78,0.00,,,0.31,378.000000,,2013-09-26 22:14:00,
2013-09-26 16:43:00,41.0,31.0,-100.00,NNW,343,5.0,14.0,68,0.00,,,0.31,219.000000,,2013-09-26 22:43:00,
2013-09-26 16:54:00,41.0,31.0,-100.00,NNW,343,5.0,14.0,68,0.00,,,0.31,219.000000,,2013-09-26 22:54:00,
2013-09-26 17:03:00,41.0,31.0,-100.00,NNW,343,5.0,14.0,68,0.00,,,0.31,219.000000,,2013-09-26 23:03:00,
2013-09-26 17:12:00,41.0,31.0,-100.00,NNW,343,5.0,14.0,68,0.00,,,0.31,219.000000,,2013-09-26 23:12:00,
2013-09-26 17:42:00,40.0,31.0,-100.00,NNW,339,8.0,12.0,71,0.00,,,0.31,230.000000,,2013-09-26 23:42:00,
2013-09-26 17:53:00,40.0,31.0,-100.00,NNW,339,8.0,12.0,71,0.00,,,0.31,230.000000,,2013-09-26 23:53:00,
2013-09-26 18:02:00,40.0,31.0,-100.00,NNW,339,8.0,12.0,71,0.00,,,0.31,230.000000,,2013-09-27 00:02:00,
2013-09-26 18:43:00,39.0,29.0,-100.00,NNW,342,5.0,12.0,68,0.00,,,0.31,126.000000,,2013-09-27 00:43:00,
2013-09-26 18:52:00,39.0,29.0,-100.00,NNW,342,5.0,12.0,68,0.00,,,0.31,126.000000,,2013-09-27 00:52:00,
2013-09-26 19:01:00,39.0,29.0,-100.00,NNW,342,5.0,12.0,68,0.00,,,0.31,126.000000,,2013-09-27 01:01:00,
2013-09-26 19:11:00,39.0,29.0,-100.00,NNW,342,5.0,12.0,68,0.00,,,0.31,126.000000,,2013-09-27 01:11:00,
2013-09-26 19:42:00,36.0,31.0,-100.00,NNW,339,5.0,9.0,83,0.00,,,0.30,16.000000,,2013-09-27 01:42:00,
2013-09-26 19:52:00,36.0,31.0,-100.00,NNW,339,5.0,9.0,83,0.00,,,0.30,16.000000,,2013-09-27 01:52:00,
2013-09-26 20:02:00,36.0,31.0,-100.00,NNW,339,5.0,9.0,83,0.00,,,0.30,16.000000,,2013-09-27 02:02:00,
2013-09-26 20:12:00,36.0,31.0,-100.00,NNW,339,5.0,9.0,83,0.00,,,0.30,16.000000,,2013-09-27 02:12:00,
2013-09-26 20:43:00,35.0,32.0,-100.00,WSW,249,4.0,8.0,87,0.00,,,0.30,1.000000,,2013-09-27 02:43:00,
2013-09-26 20:53:00,35.0,32.0,-100.00,WSW,249,4.0,8.0,87,0.00,,,0.30,1.000000,,2013-09-27 02:53:00,
2013-09-26 21:02:00,35.0,32.0,-100.00,WSW,249,4.0,8.0,87,0.00,,,0.30,1.000000,,2013-09-27 03:02:00,
2013-09-26 21:12:00,35.0,32.0,-100.00,WSW,249,4.0,8.0,87,0.00,,,0.30,1.000000,,2013-09-27 03:12:00,
2013-09-26 21:45:00,34.0,31.0,-100.00,SW,216,1.0,6.0,90,0.00,,,0.29,0.000000,,2013-09-27 03:45:00,
2013-09-26 21:55:00,34.0,31.0,-100.00,SW,216,1.0,6.0,90,0.00,,,0.29,0.000000,,2013-09-27 03:55:00,
2013-09-26 22:05:00,34.0,31.0,-100.00,SW,216,1.0,6.0,90,0.00,,,0.29,0.000000,,2013-09-27 04:05:00,
2013-09-26 22:13:00,34.0,31.0,-100.00,SW,216,1.0,6.0,90,0.00,,,0.29,0.000000,,2013-09-27 04:13:00,
2013-09-26 22:44:00,31.0,29.0,-100.00,ESE,109,6.0,7.0,93,0.00,,,0.26,0.000000,,2013-09-27 04:44:00,
2013-09-26 22:54:00,31.0,29.0,-100.00,ESE,109,6.0,7.0,93,0.00,,,0.26,0.000000,,2013-09-27 04:54:00,
2013-09-26 23:03:00,31.0,29.0,-100.00,ESE,109,6.0,7.0,93,0.00,,,0.26,0.000000,,2013-09-27 05:03:00,
2013-09-26 23:12:00,31.0,29.0,-100.00,ESE,109,6.0,7.0,93,0.00,,,0.26,0.000000,,2013-09-27 05:12:00,
2013-09-26 23:43:00,30.0,28.0,-100.00,ESE,114,3.0,6.0,92,0.00,,,0.23,0.000000,,2013-09-27 05:43:00,
2013-09-26 23:52:00,30.0,28.0,-100.00,ESE,114,3.0,6.0,92,0.00,,,0.23,0.000000,,2013-09-27 05:52:00,